Time;durP1;ratioP1;P1;durP2;ratioP2;P2;SDS_P1;SDS_P2;PMS_P1;PMS_P2;Temp;Humidity;BMP_temperature;BMP_pressure;BME280_temperature;BME280_humidity;BME280_pressure;Samples;Min_cycle;Max_cycle;Signal;HPM_P1;HPM_P2
2023/07/16 00:01:31;;;;;;;5.37;1.63;;;16.90;99.90;;;;;;5088044;28;20122;-66
2023/07/16 00:03:56;;;;;;;1.33;1.20;;;16.90;99.90;;;;;;5087509;28;20036;-65
2023/07/16 00:06:22;;;;;;;3.77;1.80;;;16.90;99.90;;;;;;5074176;28;20036;-66
2023/07/16 00:08:48;;;;;;;6.43;1.40;;;16.90;99.90;;;;;;5089566;28;20027;-65
2023/07/16 00:11:14;;;;;;;1.17;1.03;;;16.90;99.90;;;;;;5086361;28;20402;-66
2023/07/16 00:13:45;;;;;;;;;;;16.80;99.90;;;;;;5093571;28;20345;-66
2023/07/16 00:16:11;;;;;;;7.55;1.92;;;16.80;99.90;;;;;;5095469;28;19908;-77
2023/07/16 00:18:37;;;;;;;13.15;1.75;;;16.80;99.90;;;;;;5097596;28;20024;-66
2023/07/16 00:21:03;;;;;;;5.63;2.00;;;16.80;99.90;;;;;;5088645;28;20026;-67
2023/07/16 00:23:29;;;;;;;2.63;1.67;;;16.70;99.90;;;;;;5097379;28;20082;-67
2023/07/16 00:25:54;;;;;;;12.20;1.80;;;16.70;99.90;;;;;;5096658;28;20375;-65
2023/07/16 00:28:20;;;;;;;2.47;1.47;;;16.70;99.90;;;;;;5080153;28;20038;-66
2023/07/16 00:30:46;;;;;;;3.17;1.07;;;16.70;99.90;;;;;;5097079;28;20020;-65
2023/07/16 00:33:11;;;;;;;4.53;1.50;;;16.70;99.90;;;;;;5097300;28;20028;-66
2023/07/16 00:35:37;;;;;;;2.10;1.53;;;16.70;99.90;;;;;;5093744;28;20107;-66
2023/07/16 00:38:03;;;;;;;5.57;1.57;;;16.60;99.90;;;;;;5083164;28;20024;-66
2023/07/16 00:40:29;;;;;;;2.63;1.40;;;16.60;99.90;;;;;;5093433;28;20099;-67
2023/07/16 00:42:54;;;;;;;2.90;1.70;;;16.60;99.90;;;;;;5095922;28;20411;-66
2023/07/16 00:45:20;;;;;;;7.00;2.53;;;16.60;99.90;;;;;;5090000;28;20051;-66
2023/07/16 00:47:46;;;;;;;4.20;1.80;;;16.60;99.90;;;;;;5091285;28;20202;-66
2023/07/16 00:50:12;;;;;;;3.03;1.53;;;16.60;99.90;;;;;;5097106;28;20031;-67
2023/07/16 00:52:39;;;;;;;7.20;1.73;;;16.60;99.90;;;;;;5097895;28;20032;-66
2023/07/16 00:55:06;;;;;;;4.50;1.80;;;16.60;99.90;;;;;;5093661;28;20059;-66
2023/07/16 00:57:33;;;;;;;4.15;1.88;;;16.60;99.90;;;;;;5097517;28;20101;-66
2023/07/16 00:59:59;;;;;;;5.47;1.67;;;16.60;99.90;;;;;;5097119;28;20395;-66
2023/07/16 01:02:25;;;;;;;8.57;2.17;;;16.60;99.90;;;;;;5097425;28;20030;-66
2023/07/16 01:04:51;;;;;;;4.32;2.20;;;16.60;99.90;;;;;;5094594;28;20423;-66
2023/07/16 01:07:20;;;;;;;7.60;2.50;;;16.60;99.90;;;;;;5083906;28;20099;-66
2023/07/16 01:09:50;;;;;;;4.43;1.50;;;16.50;99.90;;;;;;5097208;28;20384;-66
2023/07/16 01:12:17;;;;;;;6.55;1.90;;;16.60;99.90;;;;;;5078497;28;20470;-65
2023/07/16 01:14:43;;;;;;;2.85;1.70;;;16.50;99.90;;;;;;5097075;28;20024;-66
2023/07/16 01:17:08;;;;;;;7.50;1.97;;;16.50;99.90;;;;;;5096263;28;20323;-67
2023/07/16 01:19:35;;;;;;;7.37;2.33;;;16.60;99.90;;;;;;5097479;28;20059;-66
2023/07/16 01:22:35;;;;;;;10.02;1.98;;;16.60;99.90;;;;;;5078694;28;20364;-66
2023/07/16 01:25:20;;;;;;;3.60;1.70;;;16.60;99.90;;;;;;5097011;28;20028;-66
2023/07/16 01:28:18;;;;;;;7.95;2.15;;;16.60;99.90;;;;;;5085988;28;20028;-66
2023/07/16 01:30:45;;;;;;;5.68;2.05;;;16.60;99.90;;;;;;5067691;28;20115;-66
2023/07/16 01:33:13;;;;;;;5.22;2.25;;;16.60;99.90;;;;;;5076382;28;20033;-66
2023/07/16 01:35:40;;;;;;;7.13;2.20;;;16.70;99.90;;;;;;5082185;28;20017;-65
2023/07/16 01:38:07;;;;;;;8.48;2.45;;;16.70;99.90;;;;;;5094469;28;20020;-68
2023/07/16 01:40:33;;;;;;;5.72;2.08;;;16.70;99.90;;;;;;5097024;28;20063;-65
2023/07/16 01:42:59;;;;;;;3.60;1.95;;;16.70;99.90;;;;;;5095813;28;20048;-66
2023/07/16 01:45:25;;;;;;;4.13;2.07;;;16.70;99.90;;;;;;5096873;28;20445;-67
2023/07/16 01:48:16;;;;;;;8.43;3.37;;;16.70;99.90;;;;;;5096021;28;20119;-65
2023/07/16 01:50:42;;;;;;;5.65;2.15;;;16.70;99.90;;;;;;5095689;28;20042;-66
2023/07/16 01:53:08;;;;;;;6.72;2.33;;;16.70;99.90;;;;;;5085047;28;20306;-66
2023/07/16 01:55:33;;;;;;;11.17;2.33;;;16.70;99.90;;;;;;5086006;28;20024;-66
2023/07/16 01:57:59;;;;;;;3.97;2.10;;;16.60;99.90;;;;;;5084073;28;20016;-66
2023/07/16 02:00:25;;;;;;;6.63;2.57;;;16.60;99.90;;;;;;5086852;28;20013;-66
2023/07/16 02:02:50;;;;;;;9.77;2.17;;;16.50;99.90;;;;;;5079645;28;20055;-66
2023/07/16 02:05:16;;;;;;;12.57;2.60;;;16.50;99.90;;;;;;5090593;28;20032;-65
2023/07/16 02:07:42;;;;;;;4.95;1.90;;;16.60;99.90;;;;;;5085033;28;20426;-65
2023/07/16 02:10:08;;;;;;;5.23;2.27;;;16.50;99.90;;;;;;5083434;28;20024;-67
2023/07/16 02:12:33;;;;;;;6.80;2.53;;;16.60;99.90;;;;;;5084678;28;20076;-65
2023/07/16 02:14:59;;;;;;;11.90;2.43;;;16.50;99.90;;;;;;5090867;28;20055;-65
2023/07/16 02:17:25;;;;;;;12.17;3.03;;;16.50;99.90;;;;;;5086602;28;20256;-65
2023/07/16 02:19:50;;;;;;;3.30;2.50;;;16.50;99.90;;;;;;5089426;28;20016;-65
2023/07/16 02:22:16;;;;;;;13.10;2.50;;;16.50;99.90;;;;;;5088063;28;20032;-64
2023/07/16 02:24:42;;;;;;;5.20;2.73;;;16.50;99.90;;;;;;5083047;28;20024;-65
2023/07/16 02:27:08;;;;;;;5.67;2.07;;;16.50;99.90;;;;;;5091747;28;20032;-66
2023/07/16 02:29:33;;;;;;;7.73;3.10;;;16.50;99.90;;;;;;5095150;28;20032;-66
2023/07/16 02:32:01;;;;;;;8.53;2.80;;;16.50;99.90;;;;;;5095779;28;20024;-65
2023/07/16 02:34:27;;;;;;;4.95;2.20;;;16.50;99.90;;;;;;5091558;28;20469;-65
2023/07/16 02:36:53;;;;;;;6.40;3.17;;;16.50;99.90;;;;;;5081696;28;20020;-66
2023/07/16 02:39:18;;;;;;;11.47;3.23;;;16.50;99.90;;;;;;5088246;28;20296;-65
2023/07/16 02:41:44;;;;;;;10.03;2.77;;;16.50;99.90;;;;;;5093090;28;20020;-65
2023/07/16 02:44:10;;;;;;;13.43;3.57;;;16.50;99.90;;;;;;5095732;28;20050;-65
2023/07/16 02:46:35;;;;;;;7.80;3.60;;;16.50;99.90;;;;;;5090850;28;20031;-65
2023/07/16 02:49:03;;;;;;;8.37;3.17;;;16.50;99.90;;;;;;5075035;28;20049;-65
2023/07/16 02:51:28;;;;;;;6.55;2.67;;;16.50;99.90;;;;;;5088866;28;20019;-65
2023/07/16 02:53:54;;;;;;;5.97;2.97;;;16.40;99.90;;;;;;5086459;28;20439;-86
2023/07/16 02:56:20;;;;;;;5.40;2.30;;;16.40;99.90;;;;;;5089182;28;20016;-67
2023/07/16 02:58:45;;;;;;;7.57;3.10;;;16.40;99.90;;;;;;5089181;28;20016;-66
2023/07/16 03:01:12;;;;;;;6.70;2.77;;;16.40;99.90;;;;;;5095456;28;20103;-66
2023/07/16 03:03:37;;;;;;;12.93;3.45;;;16.40;99.90;;;;;;5095028;28;20104;-66
2023/07/16 03:06:03;;;;;;;12.93;3.20;;;16.40;99.90;;;;;;5094262;28;20055;-65
2023/07/16 03:08:31;;;;;;;7.63;3.53;;;16.50;99.90;;;;;;5095193;28;20058;-66
2023/07/16 03:10:57;;;;;;;11.00;2.70;;;16.50;99.90;;;;;;5077761;28;20047;-65
2023/07/16 03:13:23;;;;;;;10.10;3.22;;;16.40;99.90;;;;;;5094501;28;20035;-65
2023/07/16 03:15:49;;;;;;;9.30;2.83;;;16.50;99.90;;;;;;5076824;28;20031;-65
2023/07/16 03:18:18;;;;;;;7.53;3.13;;;16.40;99.90;;;;;;5093513;28;20322;-67
2023/07/16 03:20:43;;;;;;;11.18;3.05;;;16.40;99.90;;;;;;5094779;28;20074;-66
2023/07/16 03:23:09;;;;;;;7.17;3.57;;;16.50;99.90;;;;;;5094713;28;20020;-65
2023/07/16 03:25:35;;;;;;;7.33;2.53;;;16.50;99.90;;;;;;5094862;28;20025;-65
2023/07/16 03:28:00;;;;;;;9.70;2.93;;;16.50;99.90;;;;;;5094734;28;20706;-66
2023/07/16 03:30:26;;;;;;;7.50;2.43;;;16.40;99.90;;;;;;5093390;28;20032;-70
2023/07/16 03:32:52;;;;;;;8.63;3.30;;;16.40;99.90;;;;;;5065345;28;20131;-66
2023/07/16 03:35:17;;;;;;;12.27;2.77;;;16.40;99.90;;;;;;5083275;28;20032;-66
2023/07/16 03:37:43;;;;;;;13.90;2.97;;;16.40;99.90;;;;;;5090214;28;20021;-65
2023/07/16 03:40:17;;;;;;;11.43;3.33;;;16.40;99.90;;;;;;5088245;28;20099;-65
2023/07/16 03:42:43;;;;;;;5.35;2.25;;;16.40;99.90;;;;;;5081310;28;20024;-66
2023/07/16 03:45:10;;;;;;;10.00;3.17;;;16.40;99.90;;;;;;5093958;28;20031;-66
2023/07/16 03:47:36;;;;;;;;;;;16.40;99.90;;;;;;5091883;28;20099;-65
2023/07/16 03:50:02;;;;;;;5.93;2.28;;;16.40;99.90;;;;;;5073945;28;19950;-66
2023/07/16 03:52:28;;;;;;;9.40;2.53;;;16.40;99.90;;;;;;5091192;28;20024;-66
2023/07/16 03:54:54;;;;;;;9.82;3.03;;;16.40;99.90;;;;;;5084639;28;20032;-65
2023/07/16 03:57:20;;;;;;;8.50;1.77;;;16.40;99.90;;;;;;5093825;28;20032;-66
2023/07/16 03:59:46;;;;;;;4.73;2.53;;;16.40;99.90;;;;;;5083220;28;20403;-65
2023/07/16 04:02:11;;;;;;;5.20;2.17;;;16.40;99.90;;;;;;5094116;28;20020;-65
2023/07/16 04:04:37;;;;;;;7.63;2.37;;;16.40;99.90;;;;;;5082389;28;20418;-65
2023/07/16 04:07:03;;;;;;;6.40;2.50;;;16.50;99.90;;;;;;5084815;28;20111;-66
2023/07/16 04:09:29;;;;;;;9.33;2.97;;;16.50;99.90;;;;;;5094077;28;20089;-65
2023/07/16 04:11:54;;;;;;;5.23;2.10;;;16.50;99.90;;;;;;5084858;28;20388;-66
2023/07/16 04:14:20;;;;;;;11.37;2.77;;;16.50;99.90;;;;;;5073346;28;20093;-64
2023/07/16 04:16:46;;;;;;;10.57;3.13;;;16.60;99.90;;;;;;5082274;28;20032;-64
2023/07/16 04:19:13;;;;;;;6.67;2.40;;;16.60;99.90;;;;;;5094613;28;20430;-64
2023/07/16 04:21:39;;;;;;;;;;;16.60;99.90;;;;;;5085909;28;20422;-64
2023/07/16 04:24:05;;;;;;;6.85;2.42;;;16.60;99.90;;;;;;5083926;28;19994;-65
2023/07/16 04:26:31;;;;;;;5.43;2.10;;;16.70;99.90;;;;;;5104468;28;20035;-64
2023/07/16 04:28:57;;;;;;;6.30;2.53;;;16.60;99.90;;;;;;5094309;28;20039;-64
2023/07/16 04:31:24;;;;;;;11.80;2.90;;;16.70;99.90;;;;;;5091441;28;20027;-64
2023/07/16 04:33:49;;;;;;;6.18;2.75;;;16.70;99.90;;;;;;5086176;28;20028;-64
2023/07/16 04:36:16;;;;;;;8.80;3.37;;;16.70;99.90;;;;;;5075614;28;20039;-65
2023/07/16 04:38:41;;;;;;;14.52;3.83;;;16.70;99.90;;;;;;5093948;28;20016;-80
2023/07/16 04:41:07;;;;;;;5.90;3.13;;;16.70;99.90;;;;;;5094258;28;20415;-64
2023/07/16 04:43:33;;;;;;;8.40;3.20;;;16.80;99.90;;;;;;5093535;28;20039;-64
2023/07/16 04:45:58;;;;;;;7.80;3.10;;;16.80;99.90;;;;;;5094067;28;20024;-63
2023/07/16 04:48:25;;;;;;;14.77;3.70;;;16.70;99.90;;;;;;5093537;28;20187;-65
2023/07/16 04:50:52;;;;;;;12.10;3.72;;;16.70;99.90;;;;;;5094104;28;20120;-64
2023/07/16 04:53:18;;;;;;;9.18;2.95;;;16.70;99.90;;;;;;5092988;28;20020;-65
2023/07/16 04:55:44;;;;;;;9.35;3.35;;;16.70;99.90;;;;;;5094089;28;20024;-64
2023/07/16 04:58:12;;;;;;;10.75;3.42;;;16.70;99.90;;;;;;5093269;28;20476;-64
2023/07/16 05:00:37;;;;;;;6.30;2.72;;;16.70;99.90;;;;;;5092427;28;20060;-65
2023/07/16 05:03:03;;;;;;;8.73;3.60;;;16.70;99.90;;;;;;5099077;28;20415;-64
2023/07/16 05:05:29;;;;;;;9.47;3.40;;;16.80;99.90;;;;;;5096990;28;20040;-64
2023/07/16 05:07:55;;;;;;;6.32;3.25;;;16.80;99.90;;;;;;5089126;28;20017;-66
2023/07/16 05:10:21;;;;;;;8.70;3.43;;;16.80;99.90;;;;;;5085648;28;20848;-81
2023/07/16 05:12:46;;;;;;;16.67;3.10;;;16.80;99.90;;;;;;5084068;28;20078;-65
2023/07/16 05:15:12;;;;;;;8.07;3.93;;;16.80;99.90;;;;;;5096913;28;20032;-64
2023/07/16 05:17:38;;;;;;;8.60;3.30;;;16.90;99.90;;;;;;5096767;28;20314;-64
2023/07/16 05:20:04;;;;;;;8.40;3.60;;;17.00;99.90;;;;;;5089209;28;20472;-64
2023/07/16 05:22:30;;;;;;;8.70;3.55;;;17.10;99.90;;;;;;5088979;28;20027;-81
2023/07/16 05:24:56;;;;;;;10.23;3.33;;;17.10;99.90;;;;;;5078661;28;20044;-64
2023/07/16 05:27:21;;;;;;;6.47;2.70;;;17.10;99.90;;;;;;5096644;28;20035;-64
2023/07/16 05:29:48;;;;;;;7.70;3.17;;;17.10;99.90;;;;;;5082642;28;20318;-64
2023/07/16 05:32:14;;;;;;;6.80;3.45;;;17.10;99.90;;;;;;5096727;28;20016;-64
2023/07/16 05:34:39;;;;;;;10.90;3.47;;;17.00;99.90;;;;;;5096253;28;20024;-64
2023/07/16 05:37:05;;;;;;;10.93;3.57;;;17.10;99.90;;;;;;5096614;28;20142;-65
2023/07/16 05:39:31;;;;;;;15.95;3.17;;;17.10;99.90;;;;;;5097047;28;20028;-65
2023/07/16 05:41:57;;;;;;;5.47;3.03;;;17.10;99.90;;;;;;5096214;28;20020;-79
2023/07/16 05:44:23;;;;;;;5.90;3.13;;;17.10;99.90;;;;;;5096674;28;20040;-65
2023/07/16 05:46:48;;;;;;;7.40;2.97;;;17.10;99.90;;;;;;5096086;28;20109;-64
2023/07/16 05:49:14;;;;;;;5.33;2.80;;;17.00;99.90;;;;;;5086572;28;20058;-65
2023/07/16 05:51:40;;;;;;;8.50;3.23;;;17.10;99.90;;;;;;5089935;28;20120;-66
2023/07/16 05:54:06;;;;;;;9.70;2.93;;;17.10;99.90;;;;;;5076474;28;20165;-65
2023/07/16 05:56:32;;;;;;;11.13;2.97;;;17.10;99.90;;;;;;5085432;28;20020;-65
2023/07/16 05:58:57;;;;;;;9.73;3.20;;;17.20;99.90;;;;;;5081979;28;20027;-65
2023/07/16 06:01:23;;;;;;;11.37;3.87;;;17.10;99.90;;;;;;5081752;28;20024;-65
2023/07/16 06:03:49;;;;;;;5.47;2.83;;;17.20;99.90;;;;;;5081742;28;20020;-66
2023/07/16 06:06:15;;;;;;;4.93;2.43;;;17.20;99.90;;;;;;5084405;28;20052;-70
2023/07/16 06:08:40;;;;;;;11.70;3.67;;;17.20;99.90;;;;;;5087781;28;20375;-65
2023/07/16 06:11:06;;;;;;;8.23;3.03;;;17.30;99.90;;;;;;5083920;28;20529;-65
2023/07/16 06:13:32;;;;;;;5.10;2.80;;;17.30;99.90;;;;;;5074131;28;20075;-64
2023/07/16 06:15:57;;;;;;;13.93;2.70;;;17.20;99.90;;;;;;5081847;28;20021;-65
2023/07/16 06:18:23;;;;;;;7.73;2.80;;;17.20;99.90;;;;;;5080759;28;20426;-65
2023/07/16 06:20:51;;;;;;;7.33;3.30;;;17.30;99.90;;;;;;5079873;28;20013;-64
2023/07/16 06:23:17;;;;;;;4.88;2.78;;;17.30;99.90;;;;;;5083678;28;20027;-65
2023/07/16 06:25:48;;;;;;;8.70;3.10;;;17.40;99.90;;;;;;5084769;28;20021;-65
2023/07/16 06:28:14;;;;;;;8.52;2.95;;;17.60;99.90;;;;;;5090281;28;20081;-65
2023/07/16 06:30:40;;;;;;;8.90;3.42;;;17.60;99.90;;;;;;5083482;28;20039;-65
2023/07/16 06:33:06;;;;;;;8.43;3.43;;;17.70;99.90;;;;;;5084636;28;20024;-65
2023/07/16 06:35:32;;;;;;;8.80;3.17;;;17.70;99.90;;;;;;5095403;28;20040;-64
2023/07/16 06:37:57;;;;;;;8.68;3.70;;;17.80;99.90;;;;;;5085235;28;20052;-66
2023/07/16 06:40:24;;;;;;;13.53;2.93;;;17.80;99.90;;;;;;5086364;28;20062;-65
2023/07/16 06:42:50;;;;;;;6.68;3.80;;;17.80;99.90;;;;;;5082267;28;20016;-65
2023/07/16 06:45:17;;;;;;;11.20;3.60;;;17.80;99.90;;;;;;5090144;28;20498;-65
2023/07/16 06:47:43;;;;;;;8.55;3.33;;;17.80;99.90;;;;;;5065747;28;20044;-64
2023/07/16 06:50:09;;;;;;;12.05;2.97;;;17.80;99.90;;;;;;5090835;28;20040;-65
2023/07/16 06:52:35;;;;;;;7.20;3.70;;;17.90;99.90;;;;;;5094856;28;20032;-64
2023/07/16 06:55:01;;;;;;;6.43;3.33;;;17.90;99.90;;;;;;5093070;28;20107;-64
2023/07/16 06:57:27;;;;;;;9.03;3.63;;;17.90;99.90;;;;;;5094984;28;20051;-65
2023/07/16 06:59:52;;;;;;;11.37;3.87;;;17.90;99.90;;;;;;5094385;28;20429;-64
2023/07/16 07:02:19;;;;;;;9.48;3.42;;;17.90;99.90;;;;;;5090602;28;20028;-64
2023/07/16 07:04:45;;;;;;;5.00;3.28;;;18.00;99.90;;;;;;5092659;28;20020;-65
2023/07/16 07:07:11;;;;;;;6.57;3.07;;;17.90;99.90;;;;;;5092865;28;20036;-79
2023/07/16 07:09:37;;;;;;;;;;;17.90;99.90;;;;;;5088520;28;20268;-65
2023/07/16 07:12:03;;;;;;;11.23;3.92;;;18.00;99.90;;;;;;5084874;28;19915;-65
2023/07/16 07:14:29;;;;;;;10.15;3.85;;;18.20;99.90;;;;;;5101728;28;20031;-64
2023/07/16 07:16:55;;;;;;;12.27;3.90;;;18.30;99.90;;;;;;5094727;28;20394;-65
2023/07/16 07:19:20;;;;;;;7.83;3.40;;;18.40;99.90;;;;;;5062282;28;20029;-64
2023/07/16 07:21:46;;;;;;;8.17;3.23;;;18.40;99.90;;;;;;5094132;28;20036;-64
2023/07/16 07:24:12;;;;;;;11.07;3.43;;;18.50;99.90;;;;;;5087228;28;20039;-66
2023/07/16 07:26:38;;;;;;;8.60;3.88;;;18.40;99.90;;;;;;5084219;28;20032;-65
2023/07/16 07:29:03;;;;;;;6.50;2.60;;;18.40;99.90;;;;;;5094049;28;20028;-64
2023/07/16 07:31:29;;;;;;;8.83;3.03;;;18.50;99.90;;;;;;5094271;28;20020;-65
2023/07/16 07:33:57;;;;;;;9.00;3.33;;;18.50;99.90;;;;;;5082905;28;20020;-64
2023/07/16 07:36:23;;;;;;;7.38;2.65;;;18.60;99.90;;;;;;5092628;28;20028;-64
2023/07/16 07:38:48;;;;;;;7.30;2.83;;;18.80;99.90;;;;;;5093381;28;20019;-67
2023/07/16 07:41:14;;;;;;;8.10;3.17;;;18.80;99.90;;;;;;5092779;28;20028;-65
2023/07/16 07:43:40;;;;;;;9.30;3.00;;;18.90;99.90;;;;;;5093002;28;20024;-63
2023/07/16 07:46:05;;;;;;;8.27;2.50;;;18.90;99.90;;;;;;5091548;28;20111;-64
2023/07/16 07:48:31;;;;;;;5.27;3.13;;;18.90;99.90;;;;;;5089663;28;20131;-65
2023/07/16 07:50:57;;;;;;;9.52;3.85;;;18.90;99.90;;;;;;5094406;28;20303;-65
2023/07/16 07:53:23;;;;;;;12.27;3.57;;;18.90;99.90;;;;;;5090883;28;20024;-65
2023/07/16 07:55:48;;;;;;;7.37;3.00;;;18.90;99.90;;;;;;5092329;28;20024;-65
2023/07/16 07:58:14;;;;;;;6.20;3.83;;;18.90;99.90;;;;;;5093038;28;20032;-65
2023/07/16 08:00:40;;;;;;;12.43;4.47;;;18.90;99.90;;;;;;5092813;28;20024;-66
2023/07/16 08:03:06;;;;;;;6.97;3.70;;;18.90;99.90;;;;;;5093225;28;20052;-65
2023/07/16 08:05:33;;;;;;;7.83;2.90;;;18.90;99.90;;;;;;5089946;28;20035;-65
2023/07/16 08:07:59;;;;;;;7.10;3.70;;;19.00;99.90;;;;;;5092950;28;20299;-65
2023/07/16 08:10:24;;;;;;;8.37;3.47;;;19.10;99.90;;;;;;5092908;28;20039;-65
2023/07/16 08:12:50;;;;;;;7.43;3.23;;;19.20;99.90;;;;;;5091443;28;20035;-65
2023/07/16 08:15:17;;;;;;;6.27;3.30;;;19.20;99.90;;;;;;5092557;28;20713;-65
2023/07/16 08:17:44;;;;;;;9.35;3.55;;;19.10;99.90;;;;;;5091287;28;20025;-66
2023/07/16 08:20:11;;;;;;;12.90;4.32;;;19.10;99.90;;;;;;5089094;28;20036;-66
2023/07/16 08:22:37;;;;;;;12.40;4.15;;;19.10;99.90;;;;;;5092354;28;20028;-65
2023/07/16 08:25:04;;;;;;;10.95;3.95;;;19.10;99.90;;;;;;5086673;28;20028;-66
2023/07/16 08:27:30;;;;;;;8.43;3.70;;;19.10;99.90;;;;;;5089238;28;20028;-66
2023/07/16 08:29:56;;;;;;;13.10;4.30;;;19.20;99.90;;;;;;5098456;28;20105;-66
2023/07/16 08:32:23;;;;;;;7.75;3.80;;;19.40;99.90;;;;;;5088287;28;20020;-66
2023/07/16 08:34:49;;;;;;;;;;;19.50;99.90;;;;;;5083829;28;20101;-66
2023/07/16 08:37:14;;;;;;;10.63;3.35;;;19.40;99.90;;;;;;5086894;28;20319;-66
2023/07/16 08:39:40;;;;;;;12.60;3.53;;;19.20;99.90;;;;;;5089025;28;20046;-66
2023/07/16 08:42:08;;;;;;;10.80;4.43;;;19.10;99.90;;;;;;5070578;28;20074;-86
2023/07/16 08:44:37;;;;;;;6.45;3.22;;;18.90;99.90;;;;;;5089867;28;20024;-66
2023/07/16 08:47:04;;;;;;;7.13;3.72;;;18.90;99.90;;;;;;5093363;28;20320;-66
2023/07/16 08:49:30;;;;;;;6.43;3.70;;;19.00;99.90;;;;;;5092653;28;20032;-65
2023/07/16 08:51:56;;;;;;;15.27;4.63;;;19.10;99.90;;;;;;5089594;28;20033;-65
2023/07/16 08:54:23;;;;;;;9.90;3.72;;;19.10;99.90;;;;;;5074449;28;20032;-65
2023/07/16 08:56:52;;;;;;;9.43;3.47;;;19.20;99.90;;;;;;5092405;28;20028;-65
2023/07/16 08:59:18;;;;;;;4.95;3.10;;;19.20;99.90;;;;;;5095444;28;20029;-68
2023/07/16 09:01:47;;;;;;;7.50;3.88;;;19.20;99.90;;;;;;5096231;28;20077;-66
2023/07/16 09:04:13;;;;;;;9.60;3.92;;;19.10;99.90;;;;;;5087967;28;20032;-66
2023/07/16 09:06:38;;;;;;;7.67;3.17;;;19.30;99.90;;;;;;5097372;28;20081;-67
2023/07/16 09:09:04;;;;;;;6.03;3.27;;;19.50;99.90;;;;;;5096111;28;20028;-65
2023/07/16 09:11:30;;;;;;;10.07;3.07;;;19.60;99.90;;;;;;5090193;28;20154;-86
2023/07/16 09:13:55;;;;;;;5.10;3.07;;;19.50;99.90;;;;;;5094124;28;20031;-66
2023/07/16 09:16:21;;;;;;;6.57;3.53;;;19.40;99.90;;;;;;5086418;28;20365;-66
2023/07/16 09:18:47;;;;;;;6.47;3.80;;;19.40;99.90;;;;;;5096514;28;20122;-66
2023/07/16 09:21:13;;;;;;;8.70;4.00;;;19.50;99.90;;;;;;5096037;28;20462;-66
2023/07/16 09:23:41;;;;;;;6.63;3.72;;;19.50;99.90;;;;;;5097166;28;20032;-66
2023/07/16 09:26:07;;;;;;;7.95;3.60;;;19.60;99.90;;;;;;5081252;28;20020;-67
2023/07/16 09:28:33;;;;;;;8.40;3.80;;;19.60;99.90;;;;;;5092956;28;20107;-66
2023/07/16 09:31:06;;;;;;;7.05;3.40;;;19.50;99.90;;;;;;5097034;28;20256;-65
2023/07/16 09:33:33;;;;;;;8.38;3.60;;;19.60;99.90;;;;;;5093924;28;20086;-66
2023/07/16 09:35:59;;;;;;;10.10;4.05;;;19.60;99.90;;;;;;5086545;28;20477;-81
2023/07/16 09:38:26;;;;;;;6.88;3.80;;;19.80;99.90;;;;;;5089587;28;20326;-66
2023/07/16 09:40:52;;;;;;;9.60;3.13;;;20.20;99.90;;;;;;5091225;28;20027;-65
2023/07/16 09:43:18;;;;;;;5.70;3.35;;;20.30;99.90;;;;;;5082888;28;20032;-65
2023/07/16 09:45:44;;;;;;;9.00;3.37;;;20.40;99.90;;;;;;5096107;28;20098;-65
2023/07/16 09:48:10;;;;;;;5.47;3.67;;;20.40;99.90;;;;;;5094556;28;20394;-66
2023/07/16 09:50:36;;;;;;;8.68;3.78;;;20.30;99.90;;;;;;5096347;28;20024;-66
2023/07/16 09:53:07;;;;;;;6.75;3.10;;;20.10;99.90;;;;;;5095617;28;20022;-65
2023/07/16 09:55:34;;;;;;;6.80;3.50;;;20.20;99.90;;;;;;5096131;28;20020;-66
2023/07/16 09:58:07;;;;;;;9.60;4.00;;;20.20;99.90;;;;;;5078430;28;20419;-80
2023/07/16 10:00:34;;;;;;;11.02;3.45;;;20.20;99.90;;;;;;5093650;28;20053;-66
2023/07/16 10:03:00;;;;;;;6.38;3.03;;;20.20;99.90;;;;;;5094239;28;20024;-64
2023/07/16 10:05:27;;;;;;;6.32;3.03;;;20.00;99.90;;;;;;5093338;28;20016;-79
2023/07/16 10:08:01;;;;;;;7.57;3.55;;;20.00;99.90;;;;;;5082466;28;20066;-65
2023/07/16 10:10:40;;;;;;;8.40;3.08;;;19.90;99.90;;;;;;5094833;28;20028;-65
2023/07/16 10:13:07;;;;;;;8.35;3.00;;;19.70;99.90;;;;;;5093184;28;20407;-65
2023/07/16 10:15:33;;;;;;;4.65;2.67;;;19.50;99.90;;;;;;5094706;28;20093;-80
2023/07/16 10:17:59;;;;;;;9.03;3.33;;;19.40;99.90;;;;;;5090492;28;20020;-85
2023/07/16 10:20:33;;;;;;;12.93;2.90;;;19.40;99.90;;;;;;5093463;28;20411;-66
2023/07/16 10:23:12;;;;;;;6.72;3.42;;;19.40;99.90;;;;;;5094447;28;20023;-78
2023/07/16 10:25:37;;;;;;;7.70;2.60;;;19.40;99.90;;;;;;5076382;28;20334;-65
2023/07/16 10:28:03;;;;;;;5.60;2.80;;;19.60;99.90;;;;;;5094479;28;20020;-66
2023/07/16 10:30:29;;;;;;;9.50;3.40;;;19.90;99.90;;;;;;5075136;28;20036;-66
2023/07/16 10:32:55;;;;;;;5.20;3.38;;;20.20;99.90;;;;;;5095710;28;20035;-66
2023/07/16 10:35:21;;;;;;;7.73;2.67;;;20.40;99.90;;;;;;5099867;28;20039;-66
2023/07/16 10:37:47;;;;;;;3.83;2.47;;;20.40;99.90;;;;;;5091784;28;20056;-66
2023/07/16 10:40:14;;;;;;;9.97;3.00;;;20.50;99.90;;;;;;5096995;28;20069;-66
2023/07/16 10:42:46;;;;;;;5.60;2.65;;;20.60;99.90;;;;;;5098723;28;20035;-86
2023/07/16 10:45:12;;;;;;;3.80;2.92;;;20.50;99.90;;;;;;5097631;28;20334;-65
2023/07/16 10:47:53;;;;;;;9.98;3.60;;;20.30;99.90;;;;;;5098524;28;20056;-65
2023/07/16 10:50:20;;;;;;;5.00;2.95;;;20.40;99.90;;;;;;5095277;28;20059;-66
2023/07/16 10:52:49;;;;;;;10.38;2.95;;;20.60;99.90;;;;;;5092687;28;20365;-65
2023/07/16 10:55:15;;;;;;;11.00;3.83;;;20.70;99.90;;;;;;5092594;28;20481;-65
2023/07/16 10:57:41;;;;;;;10.30;3.60;;;20.90;99.90;;;;;;5089170;28;20132;-65
2023/07/16 11:00:10;;;;;;;8.13;3.53;;;21.00;99.90;;;;;;5089359;28;20116;-72
2023/07/16 11:02:43;;;;;;;8.73;3.25;;;21.20;99.90;;;;;;5077565;28;20097;-66
2023/07/16 11:05:13;;;;;;;7.32;2.95;;;21.40;99.90;;;;;;5094472;28;20051;-66
2023/07/16 11:07:46;;;;;;;5.97;2.88;;;21.80;99.90;;;;;;5093803;28;20357;-66
2023/07/16 11:10:12;;;;;;;5.65;2.47;;;22.10;99.90;;;;;;5084645;28;20039;-66
2023/07/16 11:12:38;;;;;;;4.35;2.60;;;22.30;99.90;;;;;;5074681;28;20322;-67
2023/07/16 11:15:04;;;;;;;7.73;2.70;;;22.20;99.90;;;;;;5083513;28;20032;-89
2023/07/16 11:17:30;;;;;;;5.40;2.72;;;22.00;99.90;;;;;;5072018;28;20321;-65
2023/07/16 11:19:59;;;;;;;5.47;2.17;;;21.90;99.90;;;;;;5085630;28;20067;-65
2023/07/16 11:22:26;;;;;;;10.98;2.50;;;21.60;99.90;;;;;;5087792;28;20039;-66
2023/07/16 11:24:53;;;;;;;6.85;2.50;;;21.50;99.90;;;;;;5092998;28;20124;-66
2023/07/16 11:27:20;;;;;;;2.80;2.17;;;21.50;99.90;;;;;;5090228;28;20028;-66
2023/07/16 11:29:48;;;;;;;5.78;2.17;;;21.30;99.90;;;;;;5073595;28;20326;-66
2023/07/16 11:32:26;;;;;;;4.45;1.88;;;21.20;99.90;;;;;;5084934;28;20020;-67
2023/07/16 11:34:56;;;;;;;4.85;1.80;;;21.00;99.90;;;;;;5065188;28;20089;-65
2023/07/16 11:37:23;;;;;;;3.97;1.92;;;20.70;99.90;;;;;;5088477;28;20059;-66
2023/07/16 11:39:49;;;;;;;4.40;1.67;;;20.50;99.90;;;;;;5081208;28;20099;-65
2023/07/16 11:42:22;;;;;;;3.70;2.00;;;20.50;99.90;;;;;;5083058;28;20095;-67
2023/07/16 11:44:49;;;;;;;8.10;2.28;;;20.50;99.90;;;;;;5082290;28;20625;-66
2023/07/16 11:47:15;;;;;;;4.15;2.13;;;20.40;99.90;;;;;;5076965;28;20047;-66
2023/07/16 11:49:41;;;;;;;4.20;1.77;;;20.50;99.90;;;;;;5102098;28;20092;-65
2023/07/16 11:52:07;;;;;;;5.20;1.50;;;20.60;99.90;;;;;;5088429;28;20020;-66
2023/07/16 11:54:33;;;;;;;4.53;1.90;;;20.50;99.90;;;;;;5083782;28;20416;-65
2023/07/16 11:56:59;;;;;;;8.00;1.70;;;20.70;99.90;;;;;;5072427;28;20043;-66
2023/07/16 11:59:24;;;;;;;4.97;1.60;;;20.80;99.90;;;;;;5085975;28;20036;-66
2023/07/16 12:01:50;;;;;;;2.83;2.00;;;21.20;99.90;;;;;;5086920;28;20028;-66
2023/07/16 12:04:17;;;;;;;10.17;2.10;;;21.40;99.90;;;;;;5094712;28;20275;-66
2023/07/16 12:06:43;;;;;;;4.22;1.67;;;21.40;99.90;;;;;;5091111;28;20427;-65
2023/07/16 12:09:08;;;;;;;2.77;1.40;;;21.50;99.90;;;;;;5096951;28;20054;-66
2023/07/16 12:11:34;;;;;;;4.50;1.33;;;21.80;99.90;;;;;;5094200;28;20272;-66
2023/07/16 12:14:00;;;;;;;3.23;1.40;;;21.70;99.90;;;;;;5099834;28;20049;-66
2023/07/16 12:16:25;;;;;;;3.20;1.10;;;21.50;99.90;;;;;;5097834;28;20411;-64
2023/07/16 12:18:51;;;;;;;7.00;1.20;;;21.40;99.90;;;;;;5098516;28;20020;-66
2023/07/16 12:21:17;;;;;;;3.93;1.30;;;21.30;99.90;;;;;;5097424;28;20118;-66
2023/07/16 12:23:42;;;;;;;4.27;1.67;;;21.20;99.90;;;;;;5098330;28;20100;-65
2023/07/16 12:26:08;;;;;;;4.80;1.20;;;21.20;99.90;;;;;;5097950;28;20027;-66
2023/07/16 12:28:34;;;;;;;2.17;1.43;;;21.00;99.90;;;;;;5091563;28;20099;-66
2023/07/16 12:31:00;;;;;;;5.67;1.47;;;20.80;99.90;;;;;;5091091;28;20281;-66
2023/07/16 12:33:25;;;;;;;6.73;1.47;;;20.70;99.90;;;;;;5097527;28;20314;-66
2023/07/16 12:35:51;;;;;;;6.97;1.50;;;20.70;99.90;;;;;;5098124;28;20024;-66
2023/07/16 12:38:17;;;;;;;3.70;1.40;;;20.60;99.90;;;;;;5083383;28;20069;-66
2023/07/16 12:40:43;;;;;;;8.57;1.30;;;20.60;99.90;;;;;;5098134;28;20410;-66
2023/07/16 12:43:09;;;;;;;3.77;1.13;;;20.60;99.90;;;;;;5096496;28;20028;-67